Time;durP1;ratioP1;P1;durP2;ratioP2;P2;SDS_P1;SDS_P2;PMS_P1;PMS_P2;Temp;Humidity;BMP_temperature;BMP_pressure;BME280_temperature;BME280_humidity;BME280_pressure;Samples;Min_cycle;Max_cycle;Signal;HPM_P1;HPM_P2
2021/08/18 00:01:24;;;;;;;1.52;1.33;;;15.10;99.90;;;;;;5054046;28;20024;-74
2021/08/18 00:03:50;;;;;;;1.80;1.40;;;15.10;99.90;;;;;;5054175;28;20029;-74
2021/08/18 00:06:16;;;;;;;3.03;1.25;;;15.10;99.90;;;;;;5054219;28;20021;-74
2021/08/18 00:08:44;;;;;;;2.83;1.15;;;15.10;99.90;;;;;;5053963;28;20025;-74
2021/08/18 00:11:10;;;;;;;1.95;1.27;;;15.10;99.90;;;;;;5053796;28;20414;-76
2021/08/18 00:13:36;;;;;;;1.48;1.38;;;15.10;99.90;;;;;;5053775;28;20056;-76
2021/08/18 00:16:02;;;;;;;1.60;1.27;;;15.10;99.90;;;;;;5054011;28;20548;-76
2021/08/18 00:18:27;;;;;;;1.98;1.42;;;15.10;99.90;;;;;;5053763;28;20043;-74
2021/08/18 00:20:55;;;;;;;1.23;1.13;;;15.10;99.90;;;;;;5053652;28;20052;-74
2021/08/18 00:23:20;;;;;;;2.85;1.45;;;15.10;99.90;;;;;;5053696;28;20036;-74
2021/08/18 00:25:49;;;;;;;2.58;1.00;;;15.10;99.90;;;;;;5053550;28;20025;-74
2021/08/18 00:28:15;;;;;;;1.73;1.17;;;15.10;99.90;;;;;;5053338;28;20057;-74
2021/08/18 00:30:41;;;;;;;2.78;1.00;;;15.10;99.90;;;;;;5053489;28;20032;-74
2021/08/18 00:33:07;;;;;;;4.32;1.20;;;15.20;99.90;;;;;;5053562;28;20466;-74
2021/08/18 00:35:33;;;;;;;1.48;1.05;;;15.10;99.90;;;;;;5052967;28;20512;-74
2021/08/18 00:37:59;;;;;;;3.33;1.30;;;15.20;99.90;;;;;;5053275;28;20132;-74
2021/08/18 00:40:25;;;;;;;4.10;1.40;;;15.20;99.90;;;;;;5053150;28;20025;-74
2021/08/18 00:42:51;;;;;;;2.35;1.60;;;15.20;99.90;;;;;;5053330;28;20045;-76
2021/08/18 00:45:18;;;;;;;2.13;1.45;;;15.30;99.90;;;;;;5053399;28;20024;-76
2021/08/18 00:47:53;;;;;;;3.47;1.60;;;15.30;99.90;;;;;;5053416;28;20025;-75
2021/08/18 00:50:23;;;;;;;1.88;1.60;;;15.30;99.90;;;;;;5053242;28;20064;-75
2021/08/18 00:52:49;;;;;;;4.75;2.25;;;15.30;99.90;;;;;;5053213;28;20077;-75
2021/08/18 00:55:20;;;;;;;3.20;1.83;;;15.30;99.90;;;;;;5053295;28;20044;-75
2021/08/18 00:57:46;;;;;;;4.32;2.22;;;15.40;99.90;;;;;;5052885;28;20431;-75
2021/08/18 01:00:14;;;;;;;3.97;2.28;;;15.40;99.90;;;;;;5052889;28;20033;-75
2021/08/18 01:02:45;;;;;;;5.15;2.20;;;15.40;99.90;;;;;;5052997;28;20025;-75
2021/08/18 01:05:19;;;;;;;7.45;3.22;;;15.50;99.90;;;;;;5052757;28;20075;-76
2021/08/18 01:07:48;;;;;;;5.40;3.10;;;15.50;99.90;;;;;;5053104;28;20087;-76
2021/08/18 01:10:15;;;;;;;6.10;2.60;;;15.50;99.90;;;;;;5052618;28;20025;-76
2021/08/18 01:12:44;;;;;;;6.40;3.28;;;15.50;99.90;;;;;;5052880;28;20075;-76
2021/08/18 01:15:13;;;;;;;3.37;2.50;;;15.50;99.90;;;;;;5052660;28;20025;-76
2021/08/18 01:46:43;;;;;;;6.28;3.30;;;15.60;99.90;;;;;;5051170;28;20078;-74
2021/08/18 01:49:09;;;;;;;5.85;2.67;;;15.60;99.90;;;;;;5052439;28;20388;-75
2021/08/18 01:51:34;;;;;;;7.95;2.88;;;15.70;99.90;;;;;;5052306;28;20445;-75
2021/08/18 01:54:00;;;;;;;9.52;4.00;;;15.70;99.90;;;;;;5051893;28;20542;-75
2021/08/18 01:56:26;;;;;;;8.63;2.80;;;15.70;99.90;;;;;;5052233;28;20032;-77
2021/08/18 01:58:53;;;;;;;7.30;2.65;;;15.70;99.90;;;;;;5051785;28;20044;-79
2021/08/18 02:01:20;;;;;;;4.85;3.08;;;15.70;99.90;;;;;;5051942;28;20062;-75
2021/08/18 02:03:46;;;;;;;4.28;2.70;;;15.70;99.90;;;;;;5051771;28;20032;-75
2021/08/18 02:06:12;;;;;;;6.00;2.60;;;15.70;99.90;;;;;;5051837;28;20048;-75
2021/08/18 02:08:38;;;;;;;2.92;2.33;;;15.70;99.90;;;;;;5052069;28;20082;-75
2021/08/18 02:11:04;;;;;;;6.47;2.80;;;15.70;99.90;;;;;;5051678;28;20049;-74
2021/08/18 02:13:31;;;;;;;4.88;2.78;;;15.70;99.90;;;;;;5051860;28;20037;-77
2021/08/18 02:15:58;;;;;;;8.15;2.83;;;15.70;99.90;;;;;;5051562;28;20646;-76
2021/08/18 02:18:24;;;;;;;4.50;2.50;;;15.70;99.90;;;;;;5051661;28;20044;-76
2021/08/18 02:20:50;;;;;;;5.32;2.47;;;15.60;99.90;;;;;;5051615;28;20022;-76
2021/08/18 02:23:17;;;;;;;5.80;2.78;;;15.70;99.90;;;;;;5052065;28;20025;-77
2021/08/18 02:25:45;;;;;;;5.90;2.65;;;15.70;99.90;;;;;;5051834;28;20514;-76
2021/08/18 02:28:11;;;;;;;5.70;3.13;;;15.70;99.90;;;;;;5051992;28;20029;-77
2021/08/18 02:30:39;;;;;;;5.32;2.90;;;15.70;99.90;;;;;;5051927;28;20029;-74
2021/08/18 02:33:05;;;;;;;4.30;2.72;;;15.60;99.90;;;;;;5051919;28;20028;-73
2021/08/18 02:35:31;;;;;;;7.07;3.03;;;15.60;99.90;;;;;;5051916;28;20021;-74
2021/08/18 02:37:58;;;;;;;4.97;2.88;;;15.70;99.90;;;;;;5051691;28;20063;-74
2021/08/18 02:40:26;;;;;;;5.70;2.65;;;15.60;99.90;;;;;;5051761;28;20021;-74
2021/08/18 02:42:57;;;;;;;4.22;2.63;;;15.60;99.90;;;;;;5051399;28;20385;-73
2021/08/18 02:45:26;;;;;;;6.75;2.63;;;15.60;99.90;;;;;;5051573;28;20539;-77
2021/08/18 02:47:52;;;;;;;7.75;2.97;;;15.60;99.90;;;;;;5051405;28;20293;-74
2021/08/18 02:50:23;;;;;;;3.97;2.45;;;15.70;99.90;;;;;;5051838;28;20017;-75
2021/08/18 02:52:49;;;;;;;5.55;2.85;;;15.70;99.90;;;;;;5051441;28;20060;-74
2021/08/18 02:55:15;;;;;;;4.28;2.70;;;15.70;99.90;;;;;;5051600;28;20514;-74
2021/08/18 02:57:41;;;;;;;4.88;2.55;;;15.60;99.90;;;;;;5053212;28;20031;-75
2021/08/18 03:00:09;;;;;;;4.55;2.72;;;15.60;99.90;;;;;;5055269;28;20036;-75
2021/08/18 03:02:35;;;;;;;4.68;2.38;;;15.60;99.90;;;;;;5055500;28;20028;-75
2021/08/18 03:05:00;;;;;;;5.63;2.58;;;15.60;99.90;;;;;;5055069;28;20443;-74
2021/08/18 03:07:26;;;;;;;3.90;2.63;;;15.60;99.90;;;;;;5055043;28;20477;-74
2021/08/18 03:09:52;;;;;;;4.88;2.38;;;15.60;99.90;;;;;;5054901;28;20025;-75
2021/08/18 03:12:18;;;;;;;4.70;2.50;;;15.60;99.90;;;;;;5054956;28;20021;-75
2021/08/18 03:14:45;;;;;;;5.82;2.10;;;15.60;99.90;;;;;;5054910;28;20098;-74
2021/08/18 03:17:12;;;;;;;3.25;2.30;;;15.60;99.90;;;;;;5054751;28;20600;-75
2021/08/18 03:19:39;;;;;;;5.53;2.67;;;15.60;99.90;;;;;;5054963;28;20499;-74
2021/08/18 03:22:05;;;;;;;3.70;2.42;;;15.60;99.90;;;;;;5054918;28;20033;-75
2021/08/18 03:24:30;;;;;;;2.65;1.90;;;15.60;99.90;;;;;;5055158;28;20036;-74
2021/08/18 03:26:56;;;;;;;3.50;2.40;;;15.60;99.90;;;;;;5054503;28;20065;-75
2021/08/18 03:29:22;;;;;;;4.63;2.08;;;15.60;99.90;;;;;;5054671;28;20083;-75
2021/08/18 03:31:47;;;;;;;3.55;2.13;;;15.60;99.90;;;;;;5054480;28;20112;-75
2021/08/18 03:34:13;;;;;;;5.93;2.60;;;15.60;99.90;;;;;;5054871;28;20021;-75
2021/08/18 03:36:39;;;;;;;3.60;2.00;;;15.60;99.90;;;;;;5054531;28;20393;-76
2021/08/18 03:39:04;;;;;;;5.25;2.17;;;15.60;99.90;;;;;;5054310;28;20100;-75
2021/08/18 03:41:30;;;;;;;5.07;2.03;;;15.60;99.90;;;;;;5053127;28;20071;-76
2021/08/18 03:43:56;;;;;;;6.20;2.50;;;15.60;99.90;;;;;;5054635;28;20055;-75
2021/08/18 03:46:23;;;;;;;5.13;2.40;;;15.60;99.90;;;;;;5054273;28;20025;-75
2021/08/18 03:48:49;;;;;;;4.90;2.10;;;15.50;99.90;;;;;;5054574;28;20039;-76
2021/08/18 03:51:14;;;;;;;4.07;2.42;;;15.50;99.90;;;;;;5054518;28;20025;-76
2021/08/18 03:53:40;;;;;;;3.35;2.33;;;15.50;99.90;;;;;;5054144;28;20056;-76
2021/08/18 03:56:07;;;;;;;7.15;2.28;;;15.50;99.90;;;;;;5053974;28;20390;-76
2021/08/18 03:58:32;;;;;;;4.57;2.17;;;15.50;99.90;;;;;;5053988;28;20678;-75
2021/08/18 04:00:58;;;;;;;3.13;2.10;;;15.50;99.90;;;;;;5054225;28;20025;-77
2021/08/18 04:03:24;;;;;;;8.68;2.50;;;15.50;99.90;;;;;;5054073;28;20056;-77
2021/08/18 04:05:50;;;;;;;3.65;1.65;;;15.40;99.90;;;;;;5053820;28;20028;-74
2021/08/18 04:08:15;;;;;;;5.22;1.90;;;15.40;99.90;;;;;;5053825;28;20021;-75
2021/08/18 04:10:41;;;;;;;9.07;2.00;;;15.40;99.90;;;;;;5053453;28;20025;-75
2021/08/18 04:13:08;;;;;;;3.97;2.00;;;15.40;99.90;;;;;;5053812;28;20107;-75
2021/08/18 04:15:39;;;;;;;3.17;2.03;;;15.40;99.90;;;;;;5054073;28;20152;-75
2021/08/18 04:18:06;;;;;;;3.25;2.00;;;15.40;99.90;;;;;;5053673;28;20115;-76
2021/08/18 04:20:32;;;;;;;5.70;2.08;;;15.40;99.90;;;;;;5053877;28;20041;-75
2021/08/18 04:22:57;;;;;;;4.47;2.17;;;15.40;99.90;;;;;;5053732;28;20392;-75
2021/08/18 04:25:23;;;;;;;2.70;1.67;;;15.40;99.90;;;;;;5053690;28;20021;-75
2021/08/18 04:27:50;;;;;;;3.85;2.00;;;15.40;99.90;;;;;;5053485;28;20029;-75
2021/08/18 04:30:17;;;;;;;5.20;2.22;;;15.50;99.90;;;;;;5053887;28;20108;-75
2021/08/18 04:32:45;;;;;;;4.57;2.00;;;15.50;99.90;;;;;;5053784;28;20522;-73
2021/08/18 04:35:12;;;;;;;4.22;2.13;;;15.50;99.90;;;;;;5053772;28;20440;-72
2021/08/18 04:37:39;;;;;;;5.32;2.03;;;15.50;99.90;;;;;;5053279;28;20067;-65
2021/08/18 04:40:07;;;;;;;7.28;2.10;;;15.50;99.90;;;;;;5053292;28;20029;-66
2021/08/18 04:42:41;;;;;;;4.55;2.10;;;15.70;99.90;;;;;;5053336;28;20057;-68
2021/08/18 04:45:10;;;;;;;3.72;2.15;;;15.70;99.90;;;;;;5052983;28;20029;-66
2021/08/18 04:47:36;;;;;;;3.70;2.05;;;15.60;99.90;;;;;;5053045;28;20491;-69
2021/08/18 04:50:07;;;;;;;7.38;2.60;;;15.70;99.90;;;;;;5070116;28;20080;-69
2021/08/18 04:52:32;;;;;;;2.47;1.58;;;15.70;99.90;;;;;;5070106;28;20045;-69
2021/08/18 04:54:58;;;;;;;4.50;2.00;;;15.70;99.90;;;;;;5061704;28;20086;-73
2021/08/18 04:57:24;;;;;;;5.85;2.97;;;15.70;99.90;;;;;;5061955;28;20479;-73
2021/08/18 04:59:50;;;;;;;4.07;2.25;;;15.70;99.90;;;;;;5067205;28;20032;-74
2021/08/18 05:02:18;;;;;;;7.95;2.58;;;15.80;99.90;;;;;;5070135;28;20053;-73
2021/08/18 05:04:44;;;;;;;3.35;1.98;;;15.80;99.90;;;;;;5064666;28;20051;-70
2021/08/18 05:07:13;;;;;;;4.07;2.30;;;15.90;99.90;;;;;;5061225;28;20029;-69
2021/08/18 05:09:38;;;;;;;11.05;2.67;;;15.90;99.90;;;;;;5061371;28;20032;-70
2021/08/18 05:12:04;;;;;;;4.57;2.00;;;15.90;99.90;;;;;;5062266;28;20103;-69
2021/08/18 05:14:30;;;;;;;5.72;2.58;;;15.90;99.90;;;;;;5062990;28;20029;-68
2021/08/18 05:16:56;;;;;;;6.10;2.67;;;15.90;99.90;;;;;;5059487;28;20035;-69
2021/08/18 05:19:22;;;;;;;4.93;2.45;;;15.90;99.90;;;;;;5062830;28;20044;-70
2021/08/18 05:21:48;;;;;;;4.72;2.40;;;15.90;99.90;;;;;;5062776;28;20143;-68
2021/08/18 05:24:13;;;;;;;6.25;2.33;;;15.90;99.90;;;;;;5066639;28;20031;-70
2021/08/18 05:26:39;;;;;;;6.78;2.90;;;15.90;99.90;;;;;;5057848;28;20393;-68
2021/08/18 05:29:05;;;;;;;5.03;2.15;;;16.00;99.90;;;;;;5052516;28;20075;-68
2021/08/18 05:31:31;;;;;;;7.18;2.40;;;15.90;99.90;;;;;;5052387;28;20029;-70
2021/08/18 05:33:56;;;;;;;6.95;2.40;;;15.90;99.90;;;;;;5052287;28;20021;-69
2021/08/18 05:36:23;;;;;;;7.10;2.00;;;15.90;99.90;;;;;;5052238;28;20412;-68
2021/08/18 05:38:49;;;;;;;6.90;2.60;;;15.80;99.90;;;;;;5052206;28;20523;-68
2021/08/18 05:41:15;;;;;;;6.47;2.50;;;15.80;99.90;;;;;;5052426;28;20025;-68
2021/08/18 05:43:41;;;;;;;6.57;2.00;;;15.80;99.90;;;;;;5052373;28;20115;-70
2021/08/18 05:46:06;;;;;;;6.68;2.20;;;15.80;99.90;;;;;;5052130;28;20096;-68
2021/08/18 05:48:32;;;;;;;4.93;2.13;;;15.90;99.90;;;;;;5052209;28;20040;-67
2021/08/18 05:50:58;;;;;;;5.80;2.25;;;15.90;99.90;;;;;;5052086;28;20028;-67
2021/08/18 05:53:25;;;;;;;5.28;1.90;;;15.80;99.90;;;;;;5051915;28;20040;-68
2021/08/18 05:55:51;;;;;;;8.50;1.95;;;15.90;99.90;;;;;;5051856;28;20144;-67
2021/08/18 05:58:17;;;;;;;6.85;2.33;;;15.90;99.90;;;;;;5052193;28;20029;-68
2021/08/18 06:00:43;;;;;;;9.35;3.42;;;15.90;99.90;;;;;;5051842;28;20083;-69
2021/08/18 06:03:09;;;;;;;26.83;5.25;;;15.90;99.90;;;;;;5052064;28;20250;-70
2021/08/18 06:05:38;;;;;;;14.25;3.88;;;16.00;99.90;;;;;;5051969;28;20028;-68
2021/08/18 06:08:05;;;;;;;11.90;2.70;;;16.00;99.90;;;;;;5052078;28;20029;-68
2021/08/18 06:10:31;;;;;;;12.73;3.50;;;16.00;99.90;;;;;;5051799;28;20021;-68
2021/08/18 06:13:01;;;;;;;7.07;2.05;;;16.00;99.90;;;;;;5051677;28;20078;-66
2021/08/18 06:15:28;;;;;;;8.02;1.63;;;16.00;99.90;;;;;;5051749;28;20644;-68
2021/08/18 06:17:54;;;;;;;5.47;1.67;;;16.00;99.90;;;;;;5051589;28;20025;-68
2021/08/18 06:20:20;;;;;;;8.75;1.85;;;16.10;99.90;;;;;;5052070;28;20112;-69
2021/08/18 06:22:46;;;;;;;7.95;2.50;;;16.10;99.90;;;;;;5051920;28;20025;-69
2021/08/18 06:25:12;;;;;;;12.57;3.33;;;16.10;99.90;;;;;;5051558;28;20484;-68
2021/08/18 06:27:38;;;;;;;2.40;1.40;;;16.10;99.90;;;;;;5051957;28;20028;-68
2021/08/18 06:30:05;;;;;;;5.05;1.27;;;16.10;99.90;;;;;;5051597;28;20518;-68
2021/08/18 06:32:31;;;;;;;8.85;1.67;;;16.10;99.90;;;;;;5053344;28;20593;-68
2021/08/18 06:34:57;;;;;;;6.78;2.05;;;16.00;99.90;;;;;;5055865;28;20100;-67
2021/08/18 06:37:23;;;;;;;1.63;1.20;;;16.10;99.90;;;;;;5055434;28;20521;-68
2021/08/18 06:39:49;;;;;;;3.55;1.95;;;16.10;99.90;;;;;;5055815;28;20061;-68
2021/08/18 06:42:15;;;;;;;1.60;1.17;;;16.10;99.90;;;;;;5055397;28;20020;-67
2021/08/18 06:44:42;;;;;;;4.57;1.60;;;16.00;99.90;;;;;;5055496;28;20025;-67
2021/08/18 06:47:09;;;;;;;3.88;1.50;;;16.00;99.90;;;;;;5058037;28;20033;-67
2021/08/18 06:49:35;;;;;;;5.25;1.70;;;16.10;99.90;;;;;;5064344;28;20120;-66
2021/08/18 06:52:00;;;;;;;3.65;2.00;;;16.10;99.90;;;;;;5064698;28;20527;-67
2021/08/18 06:54:26;;;;;;;2.40;1.05;;;16.20;99.90;;;;;;5066010;28;20497;-67
2021/08/18 06:56:54;;;;;;;3.70;1.55;;;16.20;99.90;;;;;;5063548;28;20033;-67
2021/08/18 06:59:19;;;;;;;3.95;1.45;;;16.20;99.90;;;;;;5075423;28;20418;-67
2021/08/18 07:01:46;;;;;;;1.80;0.90;;;16.20;99.90;;;;;;5075138;28;20108;-67
2021/08/18 07:04:12;;;;;;;1.23;0.70;;;16.20;99.90;;;;;;5075013;28;20104;-67
2021/08/18 07:06:38;;;;;;;1.98;0.65;;;16.30;99.90;;;;;;5075065;28;20048;-65
2021/08/18 07:09:04;;;;;;;0.75;0.40;;;16.30;99.90;;;;;;5074946;28;20377;-65
2021/08/18 07:11:30;;;;;;;0.73;0.40;;;16.30;99.90;;;;;;5075121;28;20115;-65
2021/08/18 07:14:03;;;;;;;0.50;0.30;;;16.30;99.90;;;;;;5072731;28;20412;-65
2021/08/18 07:16:31;;;;;;;0.55;0.35;;;16.20;99.90;;;;;;5060916;28;20037;-66
2021/08/18 07:18:58;;;;;;;1.35;0.80;;;16.30;99.90;;;;;;5056530;28;20052;-66
2021/08/18 07:21:25;;;;;;;1.50;0.60;;;16.20;99.90;;;;;;5054860;28;20028;-67
2021/08/18 07:23:54;;;;;;;0.88;0.55;;;16.20;99.90;;;;;;5054892;28;20392;-66
2021/08/18 07:26:23;;;;;;;1.25;0.68;;;16.20;99.90;;;;;;5055002;28;20419;-66
2021/08/18 07:28:49;;;;;;;1.80;0.70;;;16.20;99.90;;;;;;5054939;28;20434;-67
2021/08/18 07:31:14;;;;;;;6.72;1.00;;;16.20;99.90;;;;;;5054689;28;20021;-67
2021/08/18 07:33:40;;;;;;;1.38;0.65;;;16.30;99.90;;;;;;5054565;28;20495;-68
2021/08/18 07:36:06;;;;;;;0.88;0.60;;;16.50;99.90;;;;;;5054385;28;20017;-68
2021/08/18 07:38:32;;;;;;;3.13;0.52;;;16.40;99.90;;;;;;5054287;28;20120;-68
2021/08/18 07:40:58;;;;;;;1.20;0.45;;;16.40;99.90;;;;;;5054265;28;20032;-67
2021/08/18 07:43:24;;;;;;;2.53;0.80;;;16.30;99.90;;;;;;5053510;28;20025;-67
2021/08/18 07:45:49;;;;;;;5.97;0.65;;;16.30;99.90;;;;;;5054432;28;20067;-67
2021/08/18 07:48:15;;;;;;;1.95;0.68;;;16.30;99.90;;;;;;5054078;28;20480;-67
2021/08/18 07:50:41;;;;;;;0.88;0.60;;;16.30;99.90;;;;;;5061790;28;20033;-67
2021/08/18 07:53:07;;;;;;;2.25;0.75;;;16.30;99.90;;;;;;5062301;28;20040;-67
2021/08/18 07:55:32;;;;;;;1.95;0.82;;;16.30;99.90;;;;;;5065990;28;20434;-67
2021/08/18 07:57:58;;;;;;;6.32;1.25;;;16.20;99.90;;;;;;5073077;28;20473;-69
2021/08/18 08:00:24;;;;;;;2.35;0.90;;;16.20;99.90;;;;;;5074274;28;20467;-71
2021/08/18 08:02:50;;;;;;;2.97;0.95;;;16.30;99.90;;;;;;5073705;28;20050;-71
2021/08/18 08:05:17;;;;;;;4.22;1.15;;;16.20;99.90;;;;;;5073763;28;20032;-71
2021/08/18 08:07:44;;;;;;;3.70;1.40;;;16.30;99.90;;;;;;5072624;28;20430;-70
2021/08/18 08:10:11;;;;;;;2.97;0.85;;;16.40;99.90;;;;;;5073662;28;20089;-77
2021/08/18 08:12:37;;;;;;;2.45;0.75;;;16.50;99.90;;;;;;5073923;28;20025;-72
2021/08/18 08:15:05;;;;;;;6.63;1.25;;;16.50;99.90;;;;;;5073994;28;20029;-71
2021/08/18 08:17:31;;;;;;;2.70;1.40;;;16.60;99.90;;;;;;5073585;28;20392;-74
2021/08/18 08:19:56;;;;;;;4.15;1.35;;;16.60;99.90;;;;;;5074020;28;20031;-72
2021/08/18 08:22:22;;;;;;;5.30;1.20;;;16.60;99.90;;;;;;5074023;28;20086;-71
2021/08/18 08:24:48;;;;;;;8.00;1.63;;;16.60;99.90;;;;;;5073778;28;20034;-71
2021/08/18 08:27:14;;;;;;;3.95;1.25;;;16.60;99.90;;;;;;5070184;28;20150;-72
2021/08/18 08:29:40;;;;;;;6.63;1.23;;;16.60;99.90;;;;;;5073412;28;20384;-70
2021/08/18 08:32:06;;;;;;;8.05;1.73;;;16.60;99.90;;;;;;5073385;28;20024;-70
2021/08/18 08:34:31;;;;;;;7.15;1.10;;;16.90;99.90;;;;;;5073441;28;20029;-70
2021/08/18 08:36:57;;;;;;;5.55;1.75;;;16.80;99.90;;;;;;5073527;28;20025;-70
2021/08/18 08:39:23;;;;;;;1.60;0.88;;;16.70;99.90;;;;;;5073301;28;20042;-71
2021/08/18 08:41:49;;;;;;;2.88;1.00;;;16.60;99.90;;;;;;5069087;28;20029;-73
2021/08/18 08:44:17;;;;;;;2.55;1.00;;;16.60;99.90;;;;;;5067645;28;20039;-70
2021/08/18 08:46:45;;;;;;;4.88;1.83;;;16.60;99.90;;;;;;5073029;28;20031;-72
2021/08/18 08:49:12;;;;;;;2.65;1.25;;;16.70;99.90;;;;;;5072953;28;20025;-72
2021/08/18 08:51:37;;;;;;;8.02;1.77;;;16.70;99.90;;;;;;5073276;28;20056;-71
2021/08/18 08:54:03;;;;;;;5.85;1.17;;;16.70;99.90;;;;;;5072790;28;20535;-72
2021/08/18 08:56:29;;;;;;;4.78;1.70;;;16.80;99.90;;;;;;5072938;28;20046;-71
2021/08/18 08:58:56;;;;;;;4.43;1.30;;;16.70;99.90;;;;;;5072880;28;20056;-72
2021/08/18 09:01:21;;;;;;;4.20;1.50;;;16.70;99.90;;;;;;5072697;28;20025;-69
2021/08/18 09:03:47;;;;;;;5.43;2.00;;;16.70;99.90;;;;;;5073209;28;20071;-69
2021/08/18 09:06:20;;;;;;;4.80;1.30;;;16.80;99.90;;;;;;5072935;28;20035;-72
2021/08/18 09:08:48;;;;;;;5.30;1.48;;;16.90;99.90;;;;;;5073081;28;20111;-71
2021/08/18 09:11:16;;;;;;;4.50;1.25;;;17.00;99.90;;;;;;5072802;28;20024;-71
2021/08/18 09:13:50;;;;;;;5.13;1.70;;;17.10;99.90;;;;;;5072757;28;20468;-72
2021/08/18 09:16:29;;;;;;;4.82;1.60;;;17.30;99.90;;;;;;5072493;28;20020;-72
2021/08/18 09:18:54;;;;;;;5.72;1.58;;;17.40;99.90;;;;;;5072509;28;20115;-72
2021/08/18 09:21:36;;;;;;;4.40;1.17;;;17.50;99.90;;;;;;5073233;28;20067;-72
2021/08/18 09:24:10;;;;;;;5.63;1.80;;;17.60;99.90;;;;;;5072385;28;20063;-72
2021/08/18 09:26:37;;;;;;;6.10;1.70;;;17.60;99.90;;;;;;5072390;28;20103;-73
2021/08/18 09:29:03;;;;;;;4.18;1.70;;;17.70;99.90;;;;;;5072558;28;20111;-73
2021/08/18 09:31:29;;;;;;;5.97;1.55;;;17.90;99.90;;;;;;5072379;28;20586;-72
2021/08/18 09:33:56;;;;;;;3.45;1.30;;;17.90;99.90;;;;;;5072615;28;20048;-73
2021/08/18 09:36:25;;;;;;;2.92;1.50;;;17.90;99.90;;;;;;5072082;28;20032;-72
2021/08/18 09:39:18;;;;;;;5.88;1.63;;;17.90;99.90;;;;;;5072184;28;20040;-71
2021/08/18 09:41:44;;;;;;;5.95;1.30;;;17.80;99.90;;;;;;5072410;28;20033;-71
2021/08/18 09:44:10;;;;;;;2.40;1.13;;;17.70;99.90;;;;;;5071249;28;20024;-69
2021/08/18 09:46:36;;;;;;;4.47;1.45;;;17.60;99.90;;;;;;5072069;28;20020;-69
2021/08/18 09:49:10;;;;;;;5.03;1.23;;;17.60;99.90;;;;;;5071944;28;20570;-69
2021/08/18 09:51:36;;;;;;;4.93;1.48;;;17.70;99.90;;;;;;5070687;28;20382;-70
2021/08/18 09:54:15;;;;;;;6.88;1.33;;;17.60;99.90;;;;;;5071917;28;20045;-73
2021/08/18 09:56:43;;;;;;;4.30;1.38;;;17.50;99.90;;;;;;5072347;28;20062;-70
2021/08/18 09:59:09;;;;;;;1.98;1.10;;;17.50;99.90;;;;;;5071959;28;20408;-67
2021/08/18 10:01:35;;;;;;;4.57;1.60;;;17.50;99.90;;;;;;5072045;28;20063;-69
2021/08/18 10:04:01;;;;;;;2.38;1.30;;;17.40;99.90;;;;;;5060961;28;20068;-69
2021/08/18 10:06:27;;;;;;;2.97;1.30;;;17.40;99.90;;;;;;5062940;28;20063;-69
2021/08/18 10:08:55;;;;;;;5.43;1.65;;;17.40;99.90;;;;;;5071796;28;20142;-69
2021/08/18 10:11:23;;;;;;;4.10;1.42;;;17.40;99.90;;;;;;5070479;28;20418;-67
2021/08/18 10:13:49;;;;;;;4.00;1.67;;;17.40;99.90;;;;;;5071790;28;20392;-67
2021/08/18 10:16:15;;;;;;;4.07;1.40;;;17.30;99.90;;;;;;5071799;28;20420;-67
2021/08/18 10:18:44;;;;;;;5.60;1.67;;;17.30;99.90;;;;;;5071649;28;20032;-69
2021/08/18 10:21:11;;;;;;;2.40;1.40;;;17.30;99.90;;;;;;5071822;28;20023;-69
2021/08/18 10:23:42;;;;;;;3.50;1.70;;;17.30;99.90;;;;;;5063065;28;20365;-70
2021/08/18 10:26:08;;;;;;;6.15;1.90;;;17.30;99.90;;;;;;5062229;28;20033;-70
2021/08/18 10:29:12;;;;;;;8.25;1.65;;;17.40;99.90;;;;;;5060254;28;20028;-70
2021/08/18 10:31:40;;;;;;;5.75;1.42;;;17.50;99.90;;;;;;5054282;28;20508;-71
2021/08/18 10:34:07;;;;;;;6.68;1.45;;;17.50;99.90;;;;;;5061964;28;20047;-71
2021/08/18 10:36:42;;;;;;;10.75;2.92;;;17.60;99.90;;;;;;5056641;28;20021;-72
2021/08/18 10:39:25;;;;;;;5.10;1.45;;;17.60;99.90;;;;;;5071129;28;20040;-71
2021/08/18 10:42:11;;;;;;;5.82;1.52;;;17.60;99.90;;;;;;5071588;28;20660;-71
2021/08/18 10:44:49;;;;;;;8.57;1.98;;;17.60;99.90;;;;;;5071618;28;20044;-71
2021/08/18 10:47:34;;;;;;;4.80;1.20;;;17.70;99.90;;;;;;5071455;28;20036;-70
2021/08/18 10:50:12;;;;;;;3.47;1.20;;;17.70;99.90;;;;;;5071560;28;20502;-70
2021/08/18 10:52:37;;;;;;;4.50;1.70;;;17.60;99.90;;;;;;5071534;28;20040;-70
2021/08/18 10:55:16;;;;;;;4.78;1.30;;;17.60;99.90;;;;;;5071400;28;20035;-70
2021/08/18 10:57:50;;;;;;;4.70;1.33;;;17.60;99.90;;;;;;5071334;28;20030;-70
2021/08/18 11:00:22;;;;;;;4.45;1.63;;;17.50;99.90;;;;;;5071269;28;20024;-70
2021/08/18 11:02:49;;;;;;;7.47;1.48;;;17.40;99.90;;;;;;5071167;28;20021;-71
2021/08/18 11:05:17;;;;;;;3.53;1.20;;;17.50;99.90;;;;;;5064226;28;20149;-71
2021/08/18 11:08:13;;;;;;;4.00;1.23;;;17.50;99.90;;;;;;5065402;28;20147;-70
2021/08/18 11:10:54;;;;;;;4.25;1.20;;;17.50;99.90;;;;;;5065563;28;20474;-70
2021/08/18 11:13:41;;;;;;;3.78;1.73;;;17.60;99.90;;;;;;5056406;28;20484;-70
2021/08/18 11:16:07;;;;;;;17.58;9.38;;;17.70;99.90;;;;;;5064823;28;20465;-70
2021/08/18 11:18:34;;;;;;;3.95;1.90;;;17.80;99.90;;;;;;5063031;28;20045;-70
2021/08/18 11:21:00;;;;;;;7.60;2.05;;;17.80;99.90;;;;;;5066357;28;20515;-70
2021/08/18 11:23:28;;;;;;;10.45;3.25;;;17.90;99.90;;;;;;5063615;28;20025;-70
2021/08/18 11:25:58;;;;;;;31.70;19.60;;;17.90;99.90;;;;;;5060669;28;20031;-69
2021/08/18 11:28:26;;;;;;;14.68;9.27;;;17.90;99.90;;;;;;5061960;28;20020;-69
2021/08/18 11:31:03;;;;;;;7.88;3.75;;;17.90;99.90;;;;;;5060448;28;20488;-70
2021/08/18 11:33:30;;;;;;;11.75;6.03;;;17.80;99.90;;;;;;5074773;28;20171;-70
2021/08/18 11:36:00;;;;;;;4.72;2.65;;;17.80;99.90;;;;;;5070214;28;20051;-70
2021/08/18 11:38:26;;;;;;;25.08;15.73;;;17.80;99.90;;;;;;5054484;28;20086;-70
2021/08/18 11:40:53;;;;;;;4.30;1.33;;;17.70;99.90;;;;;;5054509;28;20033;-69
2021/08/18 11:43:36;;;;;;;26.85;18.20;;;17.70;99.90;;;;;;5054508;28;20028;-68
2021/08/18 11:46:01;;;;;;;10.82;8.13;;;17.70;99.90;;;;;;5054395;28;20036;-67
2021/08/18 11:48:27;;;;;;;2.65;1.67;;;17.70;99.90;;;;;;5054112;28;20021;-68
2021/08/18 11:50:57;;;;;;;3.45;1.40;;;17.70;99.90;;;;;;5054351;28;20036;-68
2021/08/18 11:53:23;;;;;;;11.65;6.60;;;17.70;99.90;;;;;;5053806;28;20068;-68
2021/08/18 11:56:03;;;;;;;5.20;2.42;;;17.80;99.90;;;;;;5054177;28;20032;-68
2021/08/18 11:58:32;;;;;;;3.47;2.00;;;17.80;99.90;;;;;;5053849;28;20480;-70
2021/08/18 12:01:06;;;;;;;4.35;1.20;;;17.80;99.90;;;;;;5054163;28;20027;-68
2021/08/18 12:03:33;;;;;;;3.00;1.30;;;17.90;99.90;;;;;;5053911;28;20557;-68
2021/08/18 12:06:04;;;;;;;8.68;1.73;;;18.00;99.90;;;;;;5054329;28;20060;-68
2021/08/18 12:08:41;;;;;;;5.25;1.85;;;18.10;99.90;;;;;;5053851;28;20028;-68
2021/08/18 12:11:09;;;;;;;6.47;1.35;;;18.10;99.90;;;;;;5053941;28;20033;-68
2021/08/18 12:13:45;;;;;;;11.15;1.50;;;18.10;99.90;;;;;;5053837;28;20021;-68
2021/08/18 12:16:27;;;;;;;3.13;0.90;;;18.10;99.90;;;;;;5053826;28;20013;-68
2021/08/18 12:18:54;;;;;;;3.58;1.23;;;18.00;99.90;;;;;;5053970;28;20037;-68
2021/08/18 12:21:20;;;;;;;2.47;1.17;;;18.00;99.90;;;;;;5053855;28;20029;-68
2021/08/18 12:23:48;;;;;;;3.22;1.13;;;18.00;99.90;;;;;;5053891;28;20087;-68
2021/08/18 12:26:31;;;;;;;2.40;1.20;;;18.00;99.90;;;;;;5053672;28;20036;-68
2021/08/18 12:29:00;;;;;;;2.55;0.98;;;17.90;99.90;;;;;;5053652;28;20029;-69
2021/08/18 12:31:26;;;;;;;4.40;1.20;;;17.90;99.90;;;;;;5052681;28;20052;-68
2021/08/18 12:34:09;;;;;;;6.18;2.83;;;17.90;99.90;;;;;;5053348;28;20025;-68
2021/08/18 12:36:36;;;;;;;6.22;1.13;;;17.90;99.90;;;;;;5053741;28;20029;-70
2021/08/18 12:39:03;;;;;;;3.90;1.17;;;17.90;99.90;;;;;;5053802;28;20037;-65
2021/08/18 12:41:33;;;;;;;6.10;1.75;;;17.80;99.90;;;;;;5053479;28;20672;-66
2021/08/18 12:44:12;;;;;;;1.48;1.00;;;17.80;99.90;;;;;;5052254;28;20028;-68
2021/08/18 12:46:44;;;;;;;4.90;1.88;;;17.70;99.90;;;;;;5068626;28;20158;-69
2021/08/18 12:49:29;;;;;;;5.22;1.77;;;17.70;99.90;;;;;;5073532;28;20434;-68
2021/08/18 12:51:57;;;;;;;6.03;3.13;;;17.60;99.90;;;;;;5073012;28;20492;-68
2021/08/18 12:54:23;;;;;;;10.38;2.78;;;17.70;99.90;;;;;;5073091;28;20036;-67
2021/08/18 12:56:49;;;;;;;7.72;2.45;;;17.70;99.90;;;;;;5073004;28;20066;-67
2021/08/18 12:59:14;;;;;;;3.50;1.30;;;17.70;99.90;;;;;;5072670;28;20107;-66
2021/08/18 13:01:40;;;;;;;7.85;2.28;;;17.70;99.90;;;;;;5063819;28;20021;-67
2021/08/18 13:04:06;;;;;;;5.50;1.10;;;17.60;99.90;;;;;;5063340;28;20020;-68
2021/08/18 13:06:32;;;;;;;3.03;1.30;;;17.60;99.90;;;;;;5064459;28;20456;-68
2021/08/18 13:08:57;;;;;;;4.68;1.10;;;17.60;99.90;;;;;;5061795;28;20032;-67
2021/08/18 13:11:23;;;;;;;9.38;2.65;;;17.50;99.90;;;;;;5063113;28;20021;-70
2021/08/18 13:13:49;;;;;;;7.30;2.03;;;17.40;99.90;;;;;;5061725;28;20029;-69
2021/08/18 13:16:14;;;;;;;9.05;1.60;;;17.40;99.90;;;;;;5062163;28;20036;-69
2021/08/18 13:18:40;;;;;;;7.25;1.92;;;17.30;99.90;;;;;;5063045;28;20492;-66